sensor_id;sensor_type;location;lat;lon;timestamp;temperature;humidity
22450;DHT22;11392;57.390;-2.468;2022-07-23T00:00:41;12.20;99.90
22450;DHT22;11392;57.390;-2.468;2022-07-23T00:03:08;12.20;99.90
22450;DHT22;11392;57.390;-2.468;2022-07-23T00:05:35;12.30;99.90
22450;DHT22;11392;57.390;-2.468;2022-07-23T00:08:05;12.20;99.90
22450;DHT22;11392;57.390;-2.468;2022-07-23T00:10:40;12.20;99.90
22450;DHT22;11392;57.390;-2.468;2022-07-23T00:13:07;12.20;99.90
22450;DHT22;11392;57.390;-2.468;2022-07-23T00:15:34;12.20;99.90
22450;DHT22;11392;57.390;-2.468;2022-07-23T00:18:01;12.10;99.90
22450;DHT22;11392;57.390;-2.468;2022-07-23T00:20:28;12.10;99.90
22450;DHT22;11392;57.390;-2.468;2022-07-23T00:22:55;12.10;99.90
22450;DHT22;11392;57.390;-2.468;2022-07-23T00:25:23;12.10;99.90
22450;DHT22;11392;57.390;-2.468;2022-07-23T00:27:55;12.00;99.90
22450;DHT22;11392;57.390;-2.468;2022-07-23T00:30:22;12.00;99.90
22450;DHT22;11392;57.390;-2.468;2022-07-23T00:32:52;12.00;99.90
22450;DHT22;11392;57.390;-2.468;2022-07-23T00:35:24;11.90;99.90
22450;DHT22;11392;57.390;-2.468;2022-07-23T00:37:52;11.90;99.90
22450;DHT22;11392;57.390;-2.468;2022-07-23T00:40:19;11.90;99.90
22450;DHT22;11392;57.390;-2.468;2022-07-23T00:42:46;11.80;99.90
22450;DHT22;11392;57.390;-2.468;2022-07-23T00:45:13;11.80;99.90
22450;DHT22;11392;57.390;-2.468;2022-07-23T00:47:41;11.80;99.90
22450;DHT22;11392;57.390;-2.468;2022-07-23T00:50:09;11.80;99.90
22450;DHT22;11392;57.390;-2.468;2022-07-23T00:52:37;11.80;99.90
22450;DHT22;11392;57.390;-2.468;2022-07-23T00:55:05;11.80;99.90
22450;DHT22;11392;57.390;-2.468;2022-07-23T00:57:33;11.80;99.90
22450;DHT22;11392;57.390;-2.468;2022-07-23T01:00:00;11.80;99.90
22450;DHT22;11392;57.390;-2.468;2022-07-23T01:02:27;11.80;99.90
22450;DHT22;11392;57.390;-2.468;2022-07-23T01:04:54;11.80;99.90
22450;DHT22;11392;57.390;-2.468;2022-07-23T01:07:22;11.80;99.90
22450;DHT22;11392;57.390;-2.468;2022-07-23T01:09:51;11.80;99.90
22450;DHT22;11392;57.390;-2.468;2022-07-23T01:12:18;11.80;99.90
22450;DHT22;11392;57.390;-2.468;2022-07-23T01:14:45;11.90;99.90
22450;DHT22;11392;57.390;-2.468;2022-07-23T01:17:19;11.90;99.90
22450;DHT22;11392;57.390;-2.468;2022-07-23T01:19:46;11.90;99.90
22450;DHT22;11392;57.390;-2.468;2022-07-23T01:22:15;11.90;99.90
22450;DHT22;11392;57.390;-2.468;2022-07-23T01:24:44;11.90;99.90
22450;DHT22;11392;57.390;-2.468;2022-07-23T01:27:11;11.90;99.90
22450;DHT22;11392;57.390;-2.468;2022-07-23T01:29:39;12.00;99.90
22450;DHT22;11392;57.390;-2.468;2022-07-23T01:32:06;11.90;99.90
22450;DHT22;11392;57.390;-2.468;2022-07-23T01:34:33;12.00;99.90
22450;DHT22;11392;57.390;-2.468;2022-07-23T01:37:00;11.90;99.90
22450;DHT22;11392;57.390;-2.468;2022-07-23T01:39:27;11.90;99.90
22450;DHT22;11392;57.390;-2.468;2022-07-23T01:41:54;11.90;99.90
22450;DHT22;11392;57.390;-2.468;2022-07-23T01:44:21;11.90;99.90
22450;DHT22;11392;57.390;-2.468;2022-07-23T01:46:48;11.90;99.90
22450;DHT22;11392;57.390;-2.468;2022-07-23T01:49:16;11.90;99.90
22450;DHT22;11392;57.390;-2.468;2022-07-23T01:51:43;11.90;99.90
22450;DHT22;11392;57.390;-2.468;2022-07-23T01:54:32;11.80;99.90
22450;DHT22;11392;57.390;-2.468;2022-07-23T01:56:59;11.80;99.90
22450;DHT22;11392;57.390;-2.468;2022-07-23T01:59:27;11.80;99.90
22450;DHT22;11392;57.390;-2.468;2022-07-23T02:01:55;11.80;99.90
22450;DHT22;11392;57.390;-2.468;2022-07-23T02:04:23;11.80;99.90
22450;DHT22;11392;57.390;-2.468;2022-07-23T02:06:52;11.80;99.90
22450;DHT22;11392;57.390;-2.468;2022-07-23T02:09:19;11.70;99.90
22450;DHT22;11392;57.390;-2.468;2022-07-23T02:11:48;11.70;99.90
22450;DHT22;11392;57.390;-2.468;2022-07-23T02:14:15;11.60;99.90
22450;DHT22;11392;57.390;-2.468;2022-07-23T02:16:42;11.60;99.90
22450;DHT22;11392;57.390;-2.468;2022-07-23T02:19:09;11.60;99.90
22450;DHT22;11392;57.390;-2.468;2022-07-23T02:21:36;11.60;99.90
22450;DHT22;11392;57.390;-2.468;2022-07-23T02:24:04;11.60;99.90
22450;DHT22;11392;57.390;-2.468;2022-07-23T02:26:31;11.50;99.90
22450;DHT22;11392;57.390;-2.468;2022-07-23T02:29:02;11.50;99.90
22450;DHT22;11392;57.390;-2.468;2022-07-23T02:31:30;11.50;99.90
22450;DHT22;11392;57.390;-2.468;2022-07-23T02:33:58;11.50;99.90
22450;DHT22;11392;57.390;-2.468;2022-07-23T02:36:25;11.50;99.90
22450;DHT22;11392;57.390;-2.468;2022-07-23T02:38:52;11.50;99.90
22450;DHT22;11392;57.390;-2.468;2022-07-23T02:41:19;11.50;99.90
22450;DHT22;11392;57.390;-2.468;2022-07-23T02:43:46;11.40;99.90
22450;DHT22;11392;57.390;-2.468;2022-07-23T02:46:13;11.30;99.90
22450;DHT22;11392;57.390;-2.468;2022-07-23T02:48:40;11.30;99.90
22450;DHT22;11392;57.390;-2.468;2022-07-23T02:51:07;11.30;99.90
22450;DHT22;11392;57.390;-2.468;2022-07-23T02:53:40;11.20;99.90
22450;DHT22;11392;57.390;-2.468;2022-07-23T02:56:08;11.20;99.90
22450;DHT22;11392;57.390;-2.468;2022-07-23T02:58:35;11.20;99.90
22450;DHT22;11392;57.390;-2.468;2022-07-23T03:01:02;11.20;99.90
22450;DHT22;11392;57.390;-2.468;2022-07-23T03:03:29;11.20;99.90
22450;DHT22;11392;57.390;-2.468;2022-07-23T03:05:56;11.20;99.90
22450;DHT22;11392;57.390;-2.468;2022-07-23T03:08:23;11.30;99.90
22450;DHT22;11392;57.390;-2.468;2022-07-23T03:10:50;11.30;99.90
22450;DHT22;11392;57.390;-2.468;2022-07-23T03:13:17;11.40;99.90
22450;DHT22;11392;57.390;-2.468;2022-07-23T03:15:44;11.40;99.90
22450;DHT22;11392;57.390;-2.468;2022-07-23T03:18:11;11.40;99.90
22450;DHT22;11392;57.390;-2.468;2022-07-23T03:20:38;11.40;99.90
22450;DHT22;11392;57.390;-2.468;2022-07-23T03:23:05;11.40;99.90
22450;DHT22;11392;57.390;-2.468;2022-07-23T03:25:32;11.40;99.90
22450;DHT22;11392;57.390;-2.468;2022-07-23T03:27:59;11.40;99.90
22450;DHT22;11392;57.390;-2.468;2022-07-23T03:30:26;11.40;99.90
22450;DHT22;11392;57.390;-2.468;2022-07-23T03:32:53;11.40;99.90
22450;DHT22;11392;57.390;-2.468;2022-07-23T03:35:20;11.40;99.90
22450;DHT22;11392;57.390;-2.468;2022-07-23T03:37:47;11.40;99.90
22450;DHT22;11392;57.390;-2.468;2022-07-23T03:40:14;11.40;99.90
22450;DHT22;11392;57.390;-2.468;2022-07-23T03:42:41;11.40;99.90
22450;DHT22;11392;57.390;-2.468;2022-07-23T03:45:09;11.40;99.90
22450;DHT22;11392;57.390;-2.468;2022-07-23T03:47:36;11.40;99.90
22450;DHT22;11392;57.390;-2.468;2022-07-23T03:50:03;11.40;99.90
22450;DHT22;11392;57.390;-2.468;2022-07-23T03:52:31;11.50;99.90
22450;DHT22;11392;57.390;-2.468;2022-07-23T03:54:58;11.50;99.90
22450;DHT22;11392;57.390;-2.468;2022-07-23T03:57:25;11.50;99.90
22450;DHT22;11392;57.390;-2.468;2022-07-23T03:59:52;11.50;99.90
22450;DHT22;11392;57.390;-2.468;2022-07-23T04:02:19;11.60;99.90
22450;DHT22;11392;57.390;-2.468;2022-07-23T04:04:46;11.60;99.90
22450;DHT22;11392;57.390;-2.468;2022-07-23T04:07:13;11.60;99.90
22450;DHT22;11392;57.390;-2.468;2022-07-23T04:09:40;11.60;99.90
22450;DHT22;11392;57.390;-2.468;2022-07-23T04:12:12;11.60;99.90
22450;DHT22;11392;57.390;-2.468;2022-07-23T04:14:39;11.60;99.90
22450;DHT22;11392;57.390;-2.468;2022-07-23T04:17:06;11.70;99.90
22450;DHT22;11392;57.390;-2.468;2022-07-23T04:19:33;11.70;99.90
22450;DHT22;11392;57.390;-2.468;2022-07-23T04:22:02;11.70;99.90
22450;DHT22;11392;57.390;-2.468;2022-07-23T04:24:29;11.60;99.90
22450;DHT22;11392;57.390;-2.468;2022-07-23T04:26:56;11.60;99.90
22450;DHT22;11392;57.390;-2.468;2022-07-23T04:29:23;11.60;99.90
22450;DHT22;11392;57.390;-2.468;2022-07-23T04:31:50;11.70;99.90
22450;DHT22;11392;57.390;-2.468;2022-07-23T04:34:17;11.70;99.90
22450;DHT22;11392;57.390;-2.468;2022-07-23T04:36:44;11.70;99.90
22450;DHT22;11392;57.390;-2.468;2022-07-23T04:39:11;11.70;99.90
22450;DHT22;11392;57.390;-2.468;2022-07-23T04:41:38;11.70;99.90
22450;DHT22;11392;57.390;-2.468;2022-07-23T04:44:05;11.70;99.90
22450;DHT22;11392;57.390;-2.468;2022-07-23T04:46:33;11.70;99.90
22450;DHT22;11392;57.390;-2.468;2022-07-23T04:49:00;11.80;99.90
22450;DHT22;11392;57.390;-2.468;2022-07-23T04:51:27;11.80;99.90
22450;DHT22;11392;57.390;-2.468;2022-07-23T04:53:55;11.80;99.90
22450;DHT22;11392;57.390;-2.468;2022-07-23T04:56:23;11.80;99.90
22450;DHT22;11392;57.390;-2.468;2022-07-23T04:58:50;11.90;99.90
22450;DHT22;11392;57.390;-2.468;2022-07-23T05:01:17;11.90;99.90
22450;DHT22;11392;57.390;-2.468;2022-07-23T05:03:44;12.00;99.90
22450;DHT22;11392;57.390;-2.468;2022-07-23T05:06:11;12.00;99.90
22450;DHT22;11392;57.390;-2.468;2022-07-23T05:08:38;12.00;99.90
22450;DHT22;11392;57.390;-2.468;2022-07-23T05:11:05;12.00;99.90
22450;DHT22;11392;57.390;-2.468;2022-07-23T05:13:32;12.10;99.90
22450;DHT22;11392;57.390;-2.468;2022-07-23T05:15:59;12.20;99.90
22450;DHT22;11392;57.390;-2.468;2022-07-23T05:18:26;12.20;99.90
22450;DHT22;11392;57.390;-2.468;2022-07-23T05:20:53;12.20;99.90
22450;DHT22;11392;57.390;-2.468;2022-07-23T05:23:20;12.20;99.90
22450;DHT22;11392;57.390;-2.468;2022-07-23T05:25:47;12.20;99.90
22450;DHT22;11392;57.390;-2.468;2022-07-23T05:28:14;12.20;99.90
22450;DHT22;11392;57.390;-2.468;2022-07-23T05:30:43;12.30;99.90
22450;DHT22;11392;57.390;-2.468;2022-07-23T05:33:10;12.30;99.90
22450;DHT22;11392;57.390;-2.468;2022-07-23T05:35:37;12.30;99.90
22450;DHT22;11392;57.390;-2.468;2022-07-23T05:38:04;12.30;99.90
22450;DHT22;11392;57.390;-2.468;2022-07-23T05:40:31;12.40;99.90
22450;DHT22;11392;57.390;-2.468;2022-07-23T05:42:59;12.50;99.90
22450;DHT22;11392;57.390;-2.468;2022-07-23T05:45:26;12.60;99.90
22450;DHT22;11392;57.390;-2.468;2022-07-23T05:47:53;12.60;99.90
22450;DHT22;11392;57.390;-2.468;2022-07-23T05:50:20;12.60;99.90
22450;DHT22;11392;57.390;-2.468;2022-07-23T05:52:47;12.60;99.90
22450;DHT22;11392;57.390;-2.468;2022-07-23T05:55:14;12.60;99.90
22450;DHT22;11392;57.390;-2.468;2022-07-23T05:57:41;12.60;99.90
22450;DHT22;11392;57.390;-2.468;2022-07-23T06:00:09;12.70;99.90
22450;DHT22;11392;57.390;-2.468;2022-07-23T06:02:38;12.80;99.90
22450;DHT22;11392;57.390;-2.468;2022-07-23T06:05:06;12.80;99.90
22450;DHT22;11392;57.390;-2.468;2022-07-23T06:07:35;12.90;99.90
22450;DHT22;11392;57.390;-2.468;2022-07-23T06:10:03;13.00;99.90
22450;DHT22;11392;57.390;-2.468;2022-07-23T06:12:30;13.00;99.90
22450;DHT22;11392;57.390;-2.468;2022-07-23T06:14:57;13.10;99.90
22450;DHT22;11392;57.390;-2.468;2022-07-23T06:17:25;13.20;99.90
22450;DHT22;11392;57.390;-2.468;2022-07-23T06:19:52;13.40;99.90
22450;DHT22;11392;57.390;-2.468;2022-07-23T06:22:20;13.50;99.90
22450;DHT22;11392;57.390;-2.468;2022-07-23T06:24:47;13.70;99.90
22450;DHT22;11392;57.390;-2.468;2022-07-23T06:27:14;13.80;99.90
22450;DHT22;11392;57.390;-2.468;2022-07-23T06:29:41;13.90;99.90
22450;DHT22;11392;57.390;-2.468;2022-07-23T06:32:09;14.10;99.90
22450;DHT22;11392;57.390;-2.468;2022-07-23T06:34:36;14.20;99.90
22450;DHT22;11392;57.390;-2.468;2022-07-23T06:37:03;14.30;99.90
22450;DHT22;11392;57.390;-2.468;2022-07-23T06:39:30;14.50;99.90
22450;DHT22;11392;57.390;-2.468;2022-07-23T06:41:57;14.70;99.90
22450;DHT22;11392;57.390;-2.468;2022-07-23T06:44:26;14.90;99.90
22450;DHT22;11392;57.390;-2.468;2022-07-23T06:46:54;15.10;99.90
22450;DHT22;11392;57.390;-2.468;2022-07-23T06:49:21;15.30;99.90
22450;DHT22;11392;57.390;-2.468;2022-07-23T06:51:47;15.50;99.90
22450;DHT22;11392;57.390;-2.468;2022-07-23T06:54:15;15.70;99.90
22450;DHT22;11392;57.390;-2.468;2022-07-23T06:56:42;15.80;99.90
22450;DHT22;11392;57.390;-2.468;2022-07-23T06:59:10;15.80;99.90
22450;DHT22;11392;57.390;-2.468;2022-07-23T07:01:37;15.90;99.90
22450;DHT22;11392;57.390;-2.468;2022-07-23T07:04:04;16.10;99.90
22450;DHT22;11392;57.390;-2.468;2022-07-23T07:06:31;16.20;99.90
22450;DHT22;11392;57.390;-2.468;2022-07-23T07:08:58;16.20;99.90
22450;DHT22;11392;57.390;-2.468;2022-07-23T07:11:26;16.10;99.90
22450;DHT22;11392;57.390;-2.468;2022-07-23T07:13:53;16.00;99.90
22450;DHT22;11392;57.390;-2.468;2022-07-23T07:16:20;15.90;99.90
22450;DHT22;11392;57.390;-2.468;2022-07-23T07:18:47;15.80;99.90
22450;DHT22;11392;57.390;-2.468;2022-07-23T07:21:14;15.70;99.90
22450;DHT22;11392;57.390;-2.468;2022-07-23T07:23:41;15.80;99.90
22450;DHT22;11392;57.390;-2.468;2022-07-23T07:26:08;15.80;99.90
22450;DHT22;11392;57.390;-2.468;2022-07-23T07:28:35;15.80;99.90
22450;DHT22;11392;57.390;-2.468;2022-07-23T07:31:02;15.70;99.90
22450;DHT22;11392;57.390;-2.468;2022-07-23T07:33:30;15.50;99.90
22450;DHT22;11392;57.390;-2.468;2022-07-23T07:35:57;15.40;99.90
22450;DHT22;11392;57.390;-2.468;2022-07-23T07:38:24;15.40;99.90
22450;DHT22;11392;57.390;-2.468;2022-07-23T07:40:51;15.30;99.90
22450;DHT22;11392;57.390;-2.468;2022-07-23T07:43:18;15.30;99.90
22450;DHT22;11392;57.390;-2.468;2022-07-23T07:45:45;15.50;99.90
22450;DHT22;11392;57.390;-2.468;2022-07-23T07:48:12;15.50;99.90
22450;DHT22;11392;57.390;-2.468;2022-07-23T07:50:39;15.70;99.90
22450;DHT22;11392;57.390;-2.468;2022-07-23T07:53:07;15.80;99.90
22450;DHT22;11392;57.390;-2.468;2022-07-23T07:55:35;15.80;99.90
22450;DHT22;11392;57.390;-2.468;2022-07-23T07:58:03;15.90;99.90
22450;DHT22;11392;57.390;-2.468;2022-07-23T08:00:30;15.90;99.90
22450;DHT22;11392;57.390;-2.468;2022-07-23T08:02:58;16.00;99.90
22450;DHT22;11392;57.390;-2.468;2022-07-23T08:05:27;16.00;99.90
22450;DHT22;11392;57.390;-2.468;2022-07-23T08:07:56;16.00;99.90
22450;DHT22;11392;57.390;-2.468;2022-07-23T08:10:25;15.90;99.90
22450;DHT22;11392;57.390;-2.468;2022-07-23T08:12:54;15.90;99.90
22450;DHT22;11392;57.390;-2.468;2022-07-23T08:15:24;15.90;99.90
22450;DHT22;11392;57.390;-2.468;2022-07-23T08:17:52;15.80;99.90
22450;DHT22;11392;57.390;-2.468;2022-07-23T08:20:21;15.70;99.90
22450;DHT22;11392;57.390;-2.468;2022-07-23T08:22:51;15.70;99.90
22450;DHT22;11392;57.390;-2.468;2022-07-23T08:25:30;15.60;99.90
22450;DHT22;11392;57.390;-2.468;2022-07-23T08:27:59;15.60;99.90
22450;DHT22;11392;57.390;-2.468;2022-07-23T08:30:26;15.60;99.90
22450;DHT22;11392;57.390;-2.468;2022-07-23T08:35:37;15.60;99.90
22450;DHT22;11392;57.390;-2.468;2022-07-23T08:38:06;15.60;99.90
22450;DHT22;11392;57.390;-2.468;2022-07-23T08:40:36;15.70;99.90
22450;DHT22;11392;57.390;-2.468;2022-07-23T08:43:12;15.70;99.90
22450;DHT22;11392;57.390;-2.468;2022-07-23T08:45:44;15.80;99.90
22450;DHT22;11392;57.390;-2.468;2022-07-23T08:50:45;15.90;99.90
22450;DHT22;11392;57.390;-2.468;2022-07-23T08:53:14;15.90;99.90
22450;DHT22;11392;57.390;-2.468;2022-07-23T08:55:51;16.00;99.90
22450;DHT22;11392;57.390;-2.468;2022-07-23T08:58:20;16.10;99.90
22450;DHT22;11392;57.390;-2.468;2022-07-23T09:00:54;16.10;99.90
22450;DHT22;11392;57.390;-2.468;2022-07-23T09:03:26;16.10;99.90
22450;DHT22;11392;57.390;-2.468;2022-07-23T09:05:55;16.20;99.90
22450;DHT22;11392;57.390;-2.468;2022-07-23T09:08:35;16.10;99.90
22450;DHT22;11392;57.390;-2.468;2022-07-23T09:11:07;16.10;99.90
22450;DHT22;11392;57.390;-2.468;2022-07-23T09:13:50;16.10;99.90
22450;DHT22;11392;57.390;-2.468;2022-07-23T09:16:23;16.30;99.90
22450;DHT22;11392;57.390;-2.468;2022-07-23T09:18:54;16.40;99.90
22450;DHT22;11392;57.390;-2.468;2022-07-23T09:21:29;16.50;99.90
22450;DHT22;11392;57.390;-2.468;2022-07-23T09:29:07;16.50;99.90
22450;DHT22;11392;57.390;-2.468;2022-07-23T09:31:55;17.00;99.90
22450;DHT22;11392;57.390;-2.468;2022-07-23T09:34:24;17.70;99.90
22450;DHT22;11392;57.390;-2.468;2022-07-23T09:36:53;17.90;99.90
22450;DHT22;11392;57.390;-2.468;2022-07-23T09:39:32;17.80;99.90
22450;DHT22;11392;57.390;-2.468;2022-07-23T09:42:18;17.60;99.90
22450;DHT22;11392;57.390;-2.468;2022-07-23T09:44:50;17.60;99.90
22450;DHT22;11392;57.390;-2.468;2022-07-23T09:47:18;17.50;99.90
22450;DHT22;11392;57.390;-2.468;2022-07-23T09:50:06;17.20;99.90
22450;DHT22;11392;57.390;-2.468;2022-07-23T09:52:46;17.10;99.90
22450;DHT22;11392;57.390;-2.468;2022-07-23T09:55:18;16.80;99.90
22450;DHT22;11392;57.390;-2.468;2022-07-23T09:57:46;16.80;99.90
22450;DHT22;11392;57.390;-2.468;2022-07-23T10:00:22;16.80;99.90
22450;DHT22;11392;57.390;-2.468;2022-07-23T10:02:49;16.70;99.90
22450;DHT22;11392;57.390;-2.468;2022-07-23T10:05:19;16.60;99.90
22450;DHT22;11392;57.390;-2.468;2022-07-23T10:07:48;16.70;99.90
22450;DHT22;11392;57.390;-2.468;2022-07-23T10:10:21;16.70;99.90
22450;DHT22;11392;57.390;-2.468;2022-07-23T10:12:49;16.90;99.90
22450;DHT22;11392;57.390;-2.468;2022-07-23T10:15:28;17.00;99.90
22450;DHT22;11392;57.390;-2.468;2022-07-23T10:17:55;17.00;99.90
22450;DHT22;11392;57.390;-2.468;2022-07-23T10:20:22;17.00;99.90
22450;DHT22;11392;57.390;-2.468;2022-07-23T10:23:05;17.00;99.90
22450;DHT22;11392;57.390;-2.468;2022-07-23T10:34:08;17.20;99.90
22450;DHT22;11392;57.390;-2.468;2022-07-23T10:39:22;17.50;99.90
22450;DHT22;11392;57.390;-2.468;2022-07-23T10:41:51;17.60;99.90
22450;DHT22;11392;57.390;-2.468;2022-07-23T10:44:20;17.60;99.90
22450;DHT22;11392;57.390;-2.468;2022-07-23T10:47:01;17.60;99.90
22450;DHT22;11392;57.390;-2.468;2022-07-23T10:49:39;17.70;99.90
22450;DHT22;11392;57.390;-2.468;2022-07-23T10:54:44;17.90;99.90
22450;DHT22;11392;57.390;-2.468;2022-07-23T10:57:13;17.90;99.90
22450;DHT22;11392;57.390;-2.468;2022-07-23T11:02:40;18.30;99.90
22450;DHT22;11392;57.390;-2.468;2022-07-23T11:05:09;18.40;99.90
22450;DHT22;11392;57.390;-2.468;2022-07-23T11:10:36;18.30;99.90
22450;DHT22;11392;57.390;-2.468;2022-07-23T11:13:40;18.30;99.90
22450;DHT22;11392;57.390;-2.468;2022-07-23T11:16:21;18.30;99.90
22450;DHT22;11392;57.390;-2.468;2022-07-23T11:18:55;18.40;99.90
22450;DHT22;11392;57.390;-2.468;2022-07-23T11:24:12;18.20;99.90
22450;DHT22;11392;57.390;-2.468;2022-07-23T11:29:37;17.80;99.90
22450;DHT22;11392;57.390;-2.468;2022-07-23T11:32:31;17.70;99.90
22450;DHT22;11392;57.390;-2.468;2022-07-23T11:35:00;17.60;99.90
22450;DHT22;11392;57.390;-2.468;2022-07-23T11:37:32;17.50;99.90
22450;DHT22;11392;57.390;-2.468;2022-07-23T11:40:00;17.50;99.90
22450;DHT22;11392;57.390;-2.468;2022-07-23T11:42:28;17.40;99.90
22450;DHT22;11392;57.390;-2.468;2022-07-23T11:44:57;17.40;99.90
22450;DHT22;11392;57.390;-2.468;2022-07-23T11:47:26;17.40;99.90
22450;DHT22;11392;57.390;-2.468;2022-07-23T11:50:01;17.40;99.90
22450;DHT22;11392;57.390;-2.468;2022-07-23T11:52:28;17.30;99.90
22450;DHT22;11392;57.390;-2.468;2022-07-23T11:54:58;17.20;99.90
22450;DHT22;11392;57.390;-2.468;2022-07-23T11:57:30;17.30;99.90
22450;DHT22;11392;57.390;-2.468;2022-07-23T12:00:11;17.20;99.90
22450;DHT22;11392;57.390;-2.468;2022-07-23T12:02:47;17.10;99.90
22450;DHT22;11392;57.390;-2.468;2022-07-23T12:05:25;17.00;99.90
22450;DHT22;11392;57.390;-2.468;2022-07-23T12:07:54;16.90;99.90
22450;DHT22;11392;57.390;-2.468;2022-07-23T12:13:14;16.90;99.90
22450;DHT22;11392;57.390;-2.468;2022-07-23T12:15:43;16.80;99.90
22450;DHT22;11392;57.390;-2.468;2022-07-23T12:18:12;16.80;99.90
22450;DHT22;11392;57.390;-2.468;2022-07-23T12:20:45;16.80;99.90
22450;DHT22;11392;57.390;-2.468;2022-07-23T12:23:14;16.70;99.90
22450;DHT22;11392;57.390;-2.468;2022-07-23T12:25:48;16.70;99.90
22450;DHT22;11392;57.390;-2.468;2022-07-23T12:28:27;16.60;99.90
22450;DHT22;11392;57.390;-2.468;2022-07-23T12:30:56;16.70;99.90
22450;DHT22;11392;57.390;-2.468;2022-07-23T12:33:35;16.70;99.90
22450;DHT22;11392;57.390;-2.468;2022-07-23T12:36:05;16.70;99.90
22450;DHT22;11392;57.390;-2.468;2022-07-23T12:38:46;16.70;99.90
22450;DHT22;11392;57.390;-2.468;2022-07-23T12:41:14;16.80;99.90
22450;DHT22;11392;57.390;-2.468;2022-07-23T12:43:43;16.70;99.90
22450;DHT22;11392;57.390;-2.468;2022-07-23T12:46:19;16.90;99.90
22450;DHT22;11392;57.390;-2.468;2022-07-23T12:51:25;17.10;99.90
22450;DHT22;11392;57.390;-2.468;2022-07-23T12:53:56;17.10;99.90
22450;DHT22;11392;57.390;-2.468;2022-07-23T12:56:37;17.20;99.90
22450;DHT22;11392;57.390;-2.468;2022-07-23T12:59:08;17.30;99.90
22450;DHT22;11392;57.390;-2.468;2022-07-23T13:01:45;17.30;99.90
22450;DHT22;11392;57.390;-2.468;2022-07-23T13:04:25;17.30;99.90
22450;DHT22;11392;57.390;-2.468;2022-07-23T13:06:55;17.30;99.90
22450;DHT22;11392;57.390;-2.468;2022-07-23T13:09:44;17.30;99.90
22450;DHT22;11392;57.390;-2.468;2022-07-23T13:12:11;17.40;99.90
22450;DHT22;11392;57.390;-2.468;2022-07-23T13:14:38;17.50;99.90
22450;DHT22;11392;57.390;-2.468;2022-07-23T13:17:05;17.60;99.90
22450;DHT22;11392;57.390;-2.468;2022-07-23T13:19:33;17.60;99.90
22450;DHT22;11392;57.390;-2.468;2022-07-23T13:22:20;17.60;99.90
22450;DHT22;11392;57.390;-2.468;2022-07-23T13:24:47;17.50;99.90
22450;DHT22;11392;57.390;-2.468;2022-07-23T13:27:15;17.30;99.90
22450;DHT22;11392;57.390;-2.468;2022-07-23T13:29:42;17.30;99.90
22450;DHT22;11392;57.390;-2.468;2022-07-23T13:32:12;17.30;99.90
22450;DHT22;11392;57.390;-2.468;2022-07-23T13:34:40;17.30;99.90
22450;DHT22;11392;57.390;-2.468;2022-07-23T13:37:08;17.20;99.90
22450;DHT22;11392;57.390;-2.468;2022-07-23T13:39:35;17.10;99.90
22450;DHT22;11392;57.390;-2.468;2022-07-23T13:42:05;17.00;99.90
22450;DHT22;11392;57.390;-2.468;2022-07-23T13:44:34;16.80;99.90
22450;DHT22;11392;57.390;-2.468;2022-07-23T13:47:02;16.70;99.90
22450;DHT22;11392;57.390;-2.468;2022-07-23T13:49:30;16.70;99.90
22450;DHT22;11392;57.390;-2.468;2022-07-23T13:51:57;16.70;99.90
22450;DHT22;11392;57.390;-2.468;2022-07-23T13:54:25;16.60;99.90
22450;DHT22;11392;57.390;-2.468;2022-07-23T13:56:54;16.50;99.90
22450;DHT22;11392;57.390;-2.468;2022-07-23T13:59:23;16.60;99.90
22450;DHT22;11392;57.390;-2.468;2022-07-23T14:01:53;16.50;99.90
22450;DHT22;11392;57.390;-2.468;2022-07-23T14:04:40;16.50;99.90
22450;DHT22;11392;57.390;-2.468;2022-07-23T14:07:08;16.50;99.90
22450;DHT22;11392;57.390;-2.468;2022-07-23T14:09:36;16.40;99.90
22450;DHT22;11392;57.390;-2.468;2022-07-23T14:12:04;16.30;99.90
22450;DHT22;11392;57.390;-2.468;2022-07-23T14:14:32;16.30;99.90
22450;DHT22;11392;57.390;-2.468;2022-07-23T14:17:05;16.30;99.90
22450;DHT22;11392;57.390;-2.468;2022-07-23T14:19:33;16.20;99.90
22450;DHT22;11392;57.390;-2.468;2022-07-23T14:22:00;16.20;99.90
22450;DHT22;11392;57.390;-2.468;2022-07-23T14:24:27;16.30;99.90
22450;DHT22;11392;57.390;-2.468;2022-07-23T14:27:03;16.20;99.90
22450;DHT22;11392;57.390;-2.468;2022-07-23T14:29:31;16.30;99.90
22450;DHT22;11392;57.390;-2.468;2022-07-23T14:32:00;16.30;99.90
22450;DHT22;11392;57.390;-2.468;2022-07-23T14:34:28;16.20;99.90
22450;DHT22;11392;57.390;-2.468;2022-07-23T14:36:55;16.20;99.90
22450;DHT22;11392;57.390;-2.468;2022-07-23T14:39:22;16.20;99.90
22450;DHT22;11392;57.390;-2.468;2022-07-23T14:41:51;16.30;99.90
22450;DHT22;11392;57.390;-2.468;2022-07-23T14:44:18;16.30;99.90
22450;DHT22;11392;57.390;-2.468;2022-07-23T14:46:45;16.20;99.90
22450;DHT22;11392;57.390;-2.468;2022-07-23T14:49:13;16.20;99.90
22450;DHT22;11392;57.390;-2.468;2022-07-23T14:51:40;16.20;99.90
22450;DHT22;11392;57.390;-2.468;2022-07-23T14:54:09;16.20;99.90
22450;DHT22;11392;57.390;-2.468;2022-07-23T14:56:36;16.30;99.90
22450;DHT22;11392;57.390;-2.468;2022-07-23T14:59:04;16.20;99.90
22450;DHT22;11392;57.390;-2.468;2022-07-23T15:01:32;16.30;99.90
22450;DHT22;11392;57.390;-2.468;2022-07-23T15:04:00;16.30;99.90
22450;DHT22;11392;57.390;-2.468;2022-07-23T15:06:48;16.30;99.90
22450;DHT22;11392;57.390;-2.468;2022-07-23T15:09:15;16.40;99.90
22450;DHT22;11392;57.390;-2.468;2022-07-23T15:11:43;16.40;99.90
22450;DHT22;11392;57.390;-2.468;2022-07-23T15:14:10;16.50;99.90
22450;DHT22;11392;57.390;-2.468;2022-07-23T15:16:43;16.50;99.90
22450;DHT22;11392;57.390;-2.468;2022-07-23T15:19:10;16.60;99.90
22450;DHT22;11392;57.390;-2.468;2022-07-23T15:21:38;16.60;99.90
22450;DHT22;11392;57.390;-2.468;2022-07-23T15:24:05;16.50;99.90
22450;DHT22;11392;57.390;-2.468;2022-07-23T15:26:32;16.50;99.90
22450;DHT22;11392;57.390;-2.468;2022-07-23T15:29:01;16.40;99.90
22450;DHT22;11392;57.390;-2.468;2022-07-23T15:31:30;16.50;99.90
22450;DHT22;11392;57.390;-2.468;2022-07-23T15:33:57;16.50;99.90
22450;DHT22;11392;57.390;-2.468;2022-07-23T15:36:25;16.60;99.90
22450;DHT22;11392;57.390;-2.468;2022-07-23T15:38:53;16.70;99.90
22450;DHT22;11392;57.390;-2.468;2022-07-23T15:41:20;16.70;99.90
22450;DHT22;11392;57.390;-2.468;2022-07-23T15:43:47;16.70;99.90
22450;DHT22;11392;57.390;-2.468;2022-07-23T15:46:16;16.80;99.90
22450;DHT22;11392;57.390;-2.468;2022-07-23T15:48:51;16.80;99.90
22450;DHT22;11392;57.390;-2.468;2022-07-23T15:51:19;16.90;99.90
22450;DHT22;11392;57.390;-2.468;2022-07-23T15:53:46;16.90;99.90
22450;DHT22;11392;57.390;-2.468;2022-07-23T15:56:14;17.00;99.90
22450;DHT22;11392;57.390;-2.468;2022-07-23T15:58:43;16.90;99.90
22450;DHT22;11392;57.390;-2.468;2022-07-23T16:01:11;16.90;99.90
22450;DHT22;11392;57.390;-2.468;2022-07-23T16:03:39;16.90;99.90
22450;DHT22;11392;57.390;-2.468;2022-07-23T16:06:06;16.90;99.90
22450;DHT22;11392;57.390;-2.468;2022-07-23T16:08:44;16.80;99.90